createdAt,value
2019-03-22T00:03:34.029Z,14.23
2019-03-22T00:08:56.091Z,17.07
2019-03-22T00:14:20.138Z,21.03
2019-03-22T00:19:43.528Z,22.20
2019-03-22T00:25:06.407Z,19.50
2019-03-22T00:30:29.460Z,19.37
2019-03-22T00:35:51.046Z,16.30
2019-03-22T00:41:13.656Z,16.03
2019-03-22T00:46:35.566Z,16.67
2019-03-22T00:51:57.561Z,13.87
2019-03-22T00:57:28.402Z,17.97
2019-03-22T01:02:44.048Z,14.73
2019-03-22T01:08:06.464Z,20.87
2019-03-22T01:13:29.203Z,19.00
2019-03-22T01:18:51.174Z,19.80
2019-03-22T01:24:13.226Z,12.47
2019-03-22T01:29:36.050Z,17.83
2019-03-22T01:34:57.741Z,13.40
2019-03-22T01:40:19.632Z,17.40
2019-03-22T01:45:41.541Z,13.90
2019-03-22T01:51:04.259Z,13.20
2019-03-22T01:56:26.915Z,16.47
2019-03-22T02:01:50.662Z,14.60
2019-03-22T02:07:12.900Z,14.07
2019-03-22T02:12:39.351Z,18.40
2019-03-22T02:18:02.262Z,19.60
2019-03-22T02:23:23.947Z,16.60
2019-03-22T02:28:46.541Z,17.77
2019-03-22T02:34:09.384Z,16.10
2019-03-22T02:39:33.227Z,18.40
2019-03-22T02:44:55.852Z,15.97
2019-03-22T02:50:20.542Z,21.00
2019-03-22T02:55:43.153Z,24.47
2019-03-22T03:01:06.616Z,20.07
2019-03-22T03:06:29.149Z,29.13
2019-03-22T03:11:50.902Z,24.75
2019-03-22T03:17:15.463Z,27.63
2019-03-22T03:22:38.195Z,35.33
2019-03-22T03:27:59.799Z,35.27
2019-03-22T03:33:22.466Z,28.43
2019-03-22T03:38:45.383Z,28.63
2019-03-22T03:44:08.133Z,29.80
2019-03-22T03:49:32.990Z,28.27
2019-03-22T03:54:55.638Z,31.37
2019-03-22T04:00:18.004Z,28.63
2019-03-22T04:05:41.327Z,27.90
2019-03-22T04:11:03.492Z,30.90
2019-03-22T04:16:26.518Z,30.93
2019-03-22T04:21:49.872Z,32.90
2019-03-22T04:27:11.526Z,33.87
2019-03-22T04:32:34.395Z,35.90
2019-03-22T04:37:56.162Z,43.73
2019-03-22T04:43:18.879Z,57.70
2019-03-22T04:48:43.252Z,35.30
2019-03-22T04:54:07.163Z,38.83
2019-03-22T04:59:31.548Z,35.97
2019-03-22T05:04:54.034Z,34.97
2019-03-22T05:10:18.280Z,43.10
2019-03-22T05:15:40.126Z,43.77
2019-03-22T05:21:05.592Z,55.47
2019-03-22T05:26:30.993Z,63.47
2019-03-22T05:32:04.665Z,79.37
2019-03-22T05:37:26.898Z,50.50
2019-03-22T05:42:49.012Z,38.37
2019-03-22T05:48:10.610Z,36.28
2019-03-22T05:53:32.312Z,33.85
2019-03-22T05:58:53.945Z,42.80
2019-03-22T06:04:15.597Z,35.50
2019-03-22T06:09:37.712Z,36.45
2019-03-22T06:14:59.228Z,37.35
2019-03-22T06:20:22.111Z,43.20
2019-03-22T06:25:43.818Z,32.20
2019-03-22T06:31:05.630Z,31.37
2019-03-22T06:36:27.806Z,29.92
2019-03-22T06:41:49.666Z,31.48
2019-03-22T06:47:11.383Z,24.05
2019-03-22T06:52:33.186Z,24.52
2019-03-22T06:57:54.933Z,34.00
2019-03-22T07:03:16.769Z,18.42
2019-03-22T07:08:38.418Z,24.82
2019-03-22T07:14:00.306Z,20.65
2019-03-22T07:19:21.680Z,19.70
2019-03-22T07:24:43.583Z,20.97
2019-03-22T07:30:17.656Z,23.73
2019-03-22T07:35:29.998Z,27.22
2019-03-22T07:40:52.725Z,32.60
2019-03-22T07:46:14.420Z,23.40
2019-03-22T07:51:36.130Z,26.77
2019-03-22T07:56:57.842Z,20.75
2019-03-22T08:02:19.544Z,19.85
2019-03-22T08:07:41.172Z,18.77
2019-03-22T08:13:03.117Z,22.95
2019-03-22T08:18:25.111Z,20.02
2019-03-22T08:23:46.956Z,20.72
2019-03-22T08:29:08.797Z,22.25
2019-03-22T08:34:30.505Z,21.57
2019-03-22T08:39:52.264Z,20.75
2019-03-22T08:45:14.583Z,19.98
2019-03-22T08:50:36.269Z,20.48
2019-03-22T08:55:57.906Z,20.17
2019-03-22T09:01:19.302Z,19.45
2019-03-22T09:06:41.347Z,19.73
2019-03-22T09:12:03.150Z,22.15
2019-03-22T09:17:25.089Z,20.97
2019-03-22T09:22:46.797Z,23.65
2019-03-22T09:28:10.363Z,23.55
2019-03-22T09:33:32.440Z,23.55
2019-03-22T09:38:54.172Z,23.73
2019-03-22T09:44:16.152Z,20.90
2019-03-22T09:49:37.940Z,21.70
2019-03-22T09:55:12.825Z,23.40
2019-03-22T10:00:31.263Z,22.35
2019-03-22T10:05:52.745Z,18.95
2019-03-22T10:11:14.752Z,20.48
2019-03-22T10:16:36.669Z,20.30
2019-03-22T10:21:58.989Z,20.02
2019-03-22T10:27:20.690Z,20.88
2019-03-22T10:32:42.631Z,19.20
2019-03-22T10:38:06.323Z,20.92
2019-03-22T10:43:27.902Z,19.17
2019-03-22T10:48:49.778Z,22.95
2019-03-22T10:54:11.552Z,19.55
2019-03-22T10:59:33.272Z,19.70
2019-03-22T11:04:54.965Z,21.27
2019-03-22T11:10:16.850Z,21.73
2019-03-22T11:15:47.922Z,19.95
2019-03-22T11:21:05.450Z,17.27
2019-03-22T11:26:25.918Z,17.32
2019-03-22T11:31:47.954Z,17.87
2019-03-22T11:37:09.545Z,16.10
2019-03-22T11:42:31.160Z,17.23
2019-03-22T11:47:53.227Z,16.70
2019-03-22T11:53:14.760Z,16.40
2019-03-22T11:58:36.499Z,18.95
2019-03-22T12:03:58.268Z,18.70
2019-03-22T12:09:20.142Z,18.98
2019-03-22T12:14:42.159Z,16.55
2019-03-22T12:20:06.263Z,18.82
2019-03-22T12:25:27.806Z,16.60
2019-03-22T12:30:49.510Z,17.60
2019-03-22T12:36:10.985Z,17.37
2019-03-22T12:41:33.050Z,17.45
2019-03-22T12:46:54.723Z,19.62
2019-03-22T12:52:16.394Z,16.67
2019-03-22T12:57:41.086Z,21.57
2019-03-22T13:03:03.353Z,17.27
2019-03-22T13:08:28.319Z,15.68
2019-03-22T13:13:50.445Z,17.15
2019-03-22T13:19:12.443Z,17.52
2019-03-22T13:24:34.366Z,18.00
2019-03-22T13:29:58.226Z,17.45
2019-03-22T13:35:20.239Z,19.10
2019-03-22T13:40:42.496Z,17.50
2019-03-22T13:46:04.458Z,14.90
2019-03-22T13:51:26.263Z,17.87
2019-03-22T13:56:48.284Z,18.37
2019-03-22T14:02:09.783Z,17.30
2019-03-22T14:07:31.757Z,16.10
2019-03-22T14:12:53.777Z,15.90
2019-03-22T14:18:15.831Z,16.82
2019-03-22T14:23:38.138Z,16.05
2019-03-22T14:28:59.802Z,16.20
2019-03-22T14:34:22.049Z,17.95
2019-03-22T14:39:43.659Z,16.87
2019-03-22T14:45:05.281Z,16.02
2019-03-22T14:50:26.853Z,17.35
2019-03-22T14:55:48.556Z,16.42
2019-03-22T15:01:10.270Z,17.07
2019-03-22T15:06:33.296Z,16.05
2019-03-22T15:11:54.952Z,17.98
2019-03-22T15:17:54.340Z,19.27
2019-03-22T15:23:36.365Z,17.37
2019-03-22T15:29:18.061Z,17.15
2019-03-22T15:34:59.573Z,20.20
2019-03-22T15:40:21.264Z,23.25
2019-03-22T15:45:43.135Z,19.20
2019-03-22T15:51:04.603Z,21.55
2019-03-22T15:56:26.201Z,29.07
2019-03-22T16:01:48.312Z,28.25
2019-03-22T16:07:09.826Z,14.38
2019-03-22T16:12:31.586Z,28.05
2019-03-22T16:17:53.163Z,31.15
2019-03-22T16:23:14.965Z,29.42
2019-03-22T16:28:36.815Z,42.10
2019-03-22T16:33:58.512Z,29.95
2019-03-22T16:39:20.251Z,75.78
2019-03-22T16:44:42.305Z,67.90
2019-03-22T16:50:09.375Z,50.17
2019-03-22T16:55:31.109Z,70.83
2019-03-22T17:00:52.981Z,47.62
2019-03-22T17:06:14.607Z,37.00
2019-03-22T17:11:36.891Z,34.75
2019-03-22T17:16:58.761Z,23.00
2019-03-22T17:22:20.458Z,24.45
2019-03-22T17:27:42.208Z,18.65
2019-03-22T17:33:04.478Z,24.67
2019-03-22T17:38:26.106Z,19.77
2019-03-22T17:43:49.163Z,16.65
2019-03-22T17:49:10.875Z,17.85
2019-03-22T17:54:33.112Z,21.15
2019-03-22T17:59:54.829Z,19.65
2019-03-22T18:05:16.759Z,20.30
2019-03-22T18:10:38.288Z,17.57
2019-03-22T18:16:00.076Z,21.93
2019-03-22T18:21:22.018Z,15.83
2019-03-22T18:26:43.851Z,21.48
2019-03-22T18:32:05.874Z,15.98
2019-03-22T18:37:27.828Z,17.45
2019-03-22T18:42:49.665Z,19.73
2019-03-22T18:48:11.339Z,16.80
2019-03-22T18:53:33.134Z,16.07
2019-03-22T18:58:54.538Z,77.42
2019-03-22T19:04:16.262Z,26.60
2019-03-22T19:09:38.346Z,18.75
2019-03-22T19:15:00.381Z,22.58
2019-03-22T19:20:22.541Z,24.63
2019-03-22T19:25:44.610Z,30.37
2019-03-22T19:31:07.054Z,28.35
2019-03-22T19:36:29.381Z,31.95
2019-03-22T19:41:51.181Z,29.98
2019-03-22T19:47:13.453Z,28.98
2019-03-22T19:52:35.485Z,35.38
2019-03-22T19:57:57.816Z,22.20
2019-03-22T20:03:19.913Z,22.85
2019-03-22T20:08:41.863Z,21.37
2019-03-22T20:14:03.532Z,19.50
2019-03-22T20:19:25.710Z,27.32
2019-03-22T20:24:49.149Z,19.73
2019-03-22T20:30:12.741Z,18.37
2019-03-22T20:35:35.695Z,25.15
2019-03-22T20:40:59.854Z,28.57
2019-03-22T20:46:21.730Z,72.85
2019-03-22T20:51:43.712Z,23.73
2019-03-22T20:57:05.572Z,19.62
2019-03-22T21:02:27.247Z,16.65
2019-03-22T21:07:53.129Z,22.00
2019-03-22T21:13:15.037Z,25.40
2019-03-22T21:18:36.548Z,23.42
2019-03-22T21:23:59.315Z,20.27
2019-03-22T21:29:21.203Z,17.30
2019-03-22T21:34:44.114Z,36.00
2019-03-22T21:40:06.880Z,19.95
2019-03-22T21:45:29.400Z,17.17
2019-03-22T21:50:51.038Z,27.37
2019-03-22T21:56:12.814Z,20.50
2019-03-22T22:01:34.601Z,19.40
2019-03-22T22:06:56.474Z,16.50
2019-03-22T22:12:18.126Z,19.00
2019-03-22T22:17:40.199Z,20.75
2019-03-22T22:23:02.252Z,21.17
2019-03-22T22:28:23.683Z,21.95
2019-03-22T22:33:47.796Z,23.38
2019-03-22T22:39:09.812Z,19.07
2019-03-22T22:44:31.262Z,26.97
2019-03-22T22:49:53.101Z,21.40
2019-03-22T22:55:14.718Z,24.15
2019-03-22T23:00:36.445Z,20.27
2019-03-22T23:06:09.109Z,29.52
2019-03-22T23:11:22.357Z,28.45
2019-03-22T23:16:44.171Z,26.75
2019-03-22T23:22:05.761Z,32.10
2019-03-22T23:27:27.373Z,24.05
2019-03-22T23:32:49.277Z,21.40
2019-03-22T23:38:11.722Z,18.30
2019-03-22T23:43:33.594Z,18.67
2019-03-22T23:48:55.395Z,21.25
2019-03-22T23:54:17.078Z,37.42
2019-03-22T23:59:39.196Z,18.12
